• Join FlightAware (Why Join?)
  • Login
  • US Flag 
04:55AM EST


 

Airport Tracker/Info


-or-


 

Live Flight TrackerFlight Track Log ✈ AAL2273 ✈ 01-Apr-2013 ✈ KMSY - KDFW

Flight Track Log - Related Links

Times and Time Zones

All times are in EDT time to prevent confusion due to time zone crossing. See the AAL2273 flight status page for this flight to view local times or setup timezone preferences in your user account.

Time Position Orientation Groundspeed Altitude Reporting Facility
EDT Latitude Longitude Course Direction KTS MPH feet Rate Location/Type
05:08PM 30.0072 -90.2456 324° Northwest 155 178 700  Level Houston Center
05:08PM 30.0528 -90.2317 15° North 204 235 2,200 1,920 Climbing Houston Center
05:10PM 30.1873 -90.4398 316° Northwest  Level FlightAware Approximate
05:10PM 30.1158 -90.2103 16° North 232 267 4,600  Level Houston Center
05:11PM 30.2501 -90.5104 316° Northwest  Level FlightAware Approximate
05:11PM 30.1886 -90.1964 North 255 293 7,700  Level Houston Center
05:12PM 30.3145 -90.5787 324° Northwest  Level FlightAware Approximate
05:12PM 30.2436 -90.2767 308° West 266 306 10,700  Level Houston Center
05:13PM 30.3855 -90.6379 324° Northwest  Level FlightAware Approximate
05:13PM 30.2994 -90.3589 308° West 318 366 12,800  Level Houston Center
05:14PM 30.3647 -90.4431 312° West 344 396 15,700 2,520 Climbing Houston Center
05:15PM 30.4317 -90.5289 312° West 357 411 18,100 2,220 Climbing Houston Center
05:16PM 30.5008 -90.6131 314° West 360 414 20,400 1,980 Climbing Houston Center
05:17PM 30.5703 -90.7028 312° West 371 427 22,300 1,320 Climbing Houston Center
05:18PM 30.6564 -90.8103 313° West 378 435 23,200 1,200 Climbing Houston Center
05:19PM 30.6947 -90.9233 292° West 374 430 24,800 1,500 Climbing Houston Center
05:20PM 30.7350 -91.0350 293° West 375 432 26,400 1,500 Climbing Houston Center
05:21PM 30.7817 -91.1631 293° West 389 448 28,000 1,680 Climbing Houston Center
05:22PM 30.8231 -91.2781 293° West 388 447 29,900 1,560 Climbing Houston Center
05:23PM 30.8639 -91.3922 293° West 384 442 31,300 1,260 Climbing Houston Center
05:24PM 30.9050 -91.5039 293° West 377 434 32,600 1,200 Climbing Houston Center
05:25PM 30.9436 -91.6133 292° West 368 423 33,800 660 Climbing Houston Center
05:26PM 30.9825 -91.7228 293° West 366 421 34,000 60 Climbing Houston Center
05:27PM 31.0300 -91.8569 292° West 373 429 34,000  Level Houston Center
05:28PM 31.0686 -91.9672 292° West 370 426 34,000  Level Houston Center
05:29PM 31.1067 -92.0728 293° West 370 426 34,000  Level Houston Center
05:30PM 31.1444 -92.1839 292° West 369 425 34,000  Level Houston Center
05:31PM 31.1839 -92.2950 293° West 371 427 34,000  Level Houston Center
05:32PM 31.2303 -92.4283 292° West 371 427 34,000  Level Houston Center
05:33PM 31.2700 -92.5403 293° West 373 429 34,000  Level Houston Center
05:34PM 31.3133 -92.6497 295° West 374 430 34,000 -60 Level Houston Center
05:35PM 31.3547 -92.7617 293° West 376 433 33,900  Descending Houston Center
05:36PM 31.3961 -92.8714 294° West 373 429 34,000  Climbing Houston Center
05:37PM 31.4464 -93.0039 294° West 373 429 34,000  Level Houston Center
05:39PM 31.4869 -93.1136 293° West 371 427 34,000  Level Houston Center
05:40PM 31.5289 -93.2244 294° West 372 428 34,000  Level Houston Center
05:41PM 31.5686 -93.3319 293° West 373 429 34,000  Level Houston Center
05:42PM 31.6181 -93.4644 294° West 371 427 34,000  Level Houston Center
05:43PM 31.6536 -93.5625 293° West 372 428 34,000  Level Fort Worth Center
05:44PM 31.6944 -93.6731 293° West 372 428 34,000  Level Fort Worth Center
05:45PM 31.7353 -93.7861 293° West 372 428 34,000  Level Fort Worth Center
05:46PM 31.7617 -93.9025 285° West 372 428 34,000  Level Fort Worth Center
05:47PM 31.7897 -94.0186 286° West 367 422 34,000  Level Fort Worth Center
05:48PM 31.8117 -94.1375 282° West 367 422 34,000  Level Fort Worth Center
05:49PM 31.8356 -94.2542 284° West 372 428 34,000  Level Fort Worth Center
05:50PM 31.8594 -94.3756 283° West 372 428 34,000  Level Fort Worth Center
05:51PM 31.8811 -94.4922 282° West 372 428 34,000  Level Fort Worth Center
05:52PM 31.9047 -94.6139 283° West 372 428 34,000  Level Fort Worth Center
05:53PM 31.9281 -94.7331 283° West 372 428 34,000  Level Fort Worth Center
05:54PM 31.9494 -94.8525 282° West 372 428 34,000  Level Fort Worth Center
05:55PM 31.9789 -94.9717 286° West 372 428 34,000  Level Fort Worth Center
05:56PM 32.0125 -95.0883 289° West 372 428 34,000  Level Fort Worth Center
05:57PM 32.0458 -95.2025 289° West 377 434 34,000 -180 Level Fort Worth Center
05:58PM 32.0750 -95.3197 286° West 377 434 33,700 -1,200 Descending Fort Worth Center
05:59PM 32.1061 -95.4392 287° West 377 434 31,700 -2,040 Descending Fort Worth Center
06:00PM 32.1433 -95.5561 291° West 377 434 29,700 -2,040 Descending Fort Worth Center
06:01PM 32.1764 -95.6806 287° West 382 440 27,700 -2,040 Descending Fort Worth Center
06:02PM 32.2094 -95.8075 287° West 399 459 25,700 -2,040 Descending Fort Worth Center
06:03PM 32.2467 -95.9419 288° West 399 459 23,700 -2,100 Descending Fort Worth Center
06:04PM 32.2792 -96.0644 287° West 393 452 21,600 -2,040 Descending Fort Worth Center
06:05PM 32.3075 -96.1744 287° West 393 452 19,700 -1,980 Descending Fort Worth Center
06:06PM 32.3419 -96.3019 288° West 380 437 17,700 -1,800 Descending Fort Worth Center
06:07PM 32.3700 -96.4050 288° West 375 432 16,200 -1,560 Descending Fort Worth Center
06:08PM 32.4336 -96.5100 306° West 361 415 14,600 -2,040 Descending Fort Worth Center
06:09PM 32.4967 -96.5883 314° West 358 412 12,200 -1,800 Descending Fort Worth Center
06:10PM 32.5786 -96.6836 316° Northwest 368 423 11,000 -600 Descending Fort Worth Center
06:11PM 32.6417 -96.7622 314° West 368 423 11,000 -60 Level Fort Worth Center
06:12PM 32.7131 -96.8456 316° Northwest 351 404 10,900  Descending Fort Worth Center
06:13PM 32.7667 -96.9000 320° Northwest 244 281 11,000 -480 Climbing Dallas / Fort Worth TRACON
06:14PM 32.8333 -96.9000 360° North 243 280 10,000 -1,680 Descending Dallas / Fort Worth TRACON
06:15PM 32.9167 -96.9000 360° North 248 285 7,500 -2,100 Descending Dallas / Fort Worth TRACON
06:16PM 32.9667 -96.9000 360° North 237 273 5,800 -1,920 Descending Dallas / Fort Worth TRACON
06:17PM 33.0333 -96.9167 348° North 235 270 3,900 -1,920 Descending Dallas / Fort Worth TRACON